Terminal Aerodrome Forecast
Issued by NWS

Home | Current Version | Previous Version | Text Only | Print | Product List | Glossary On
Versions: 1 2 3 4 5 6 7 8 9 10 11 12 13 14 15 16 17 18 19 20
932
FTUS46 KEKA 231125
TAFCEC
TAF
KCEC 231125Z 2312/2412 35004KT 6SM BR FEW250
     FM231600 34010KT P6SM SKC
     FM231900 33016G25KT P6SM SKC
     FM240300 35010G16KT P6SM FEW006 SCT120
     FM240600 36006KT P6SM SKC=

USA.gov is the U.S. government's official web portal to all federal, state and local government web resources and services.